Time;durP1;ratioP1;P1;durP2;ratioP2;P2;SDS_P1;SDS_P2;PMS_P1;PMS_P2;Temp;Humidity;BMP_temperature;BMP_pressure;BME280_temperature;BME280_humidity;BME280_pressure;Samples;Min_cycle;Max_cycle;Signal;HPM_P1;HPM_P2
2023/10/05 00:02:12;;;;;;;;;;;15.30;82.30;;;;;;4990006;28;20536;-69
2023/10/05 00:04:42;;;;;;;0.00;0.00;;;15.30;82.20;;;;;;4991589;28;19937;-69
2023/10/05 00:07:19;;;;;;;0.00;0.00;;;15.30;81.90;;;;;;4975564;28;20049;-69
2023/10/05 00:09:45;;;;;;;0.00;0.00;;;15.30;81.80;;;;;;4993207;28;20042;-68
2023/10/05 00:12:18;;;;;;;0.10;0.10;;;15.40;81.80;;;;;;4993019;28;20050;-69
2023/10/05 00:14:48;;;;;;;0.00;0.00;;;15.40;81.70;;;;;;4993119;28;20061;-69
2023/10/05 00:17:18;;;;;;;0.00;0.00;;;15.40;81.80;;;;;;4991004;28;20069;-69
2023/10/05 00:19:43;;;;;;;0.00;0.00;;;15.30;81.80;;;;;;4975924;28;20118;-69
2023/10/05 00:22:09;;;;;;;0.00;0.00;;;15.30;81.80;;;;;;4973601;28;20086;-69
2023/10/05 00:24:36;;;;;;;0.00;0.00;;;15.40;81.80;;;;;;4988256;28;20042;-69
2023/10/05 00:27:04;;;;;;;0.00;0.00;;;15.40;81.60;;;;;;4992681;28;20561;-70
2023/10/05 00:29:40;;;;;;;0.00;0.00;;;15.40;81.60;;;;;;4990655;28;20604;-68
2023/10/05 00:32:26;;;;;;;0.00;0.00;;;15.40;81.70;;;;;;4992522;28;20101;-68
2023/10/05 00:34:55;;;;;;;0.00;0.00;;;15.30;81.50;;;;;;4978082;28;20496;-69
2023/10/05 00:37:22;;;;;;;16.15;0.80;;;15.30;81.50;;;;;;4973305;28;20054;-69
2023/10/05 00:39:49;;;;;;;0.40;0.40;;;15.40;81.50;;;;;;4987376;28;20050;-68
2023/10/05 00:42:16;;;;;;;0.70;0.68;;;15.40;81.60;;;;;;4992597;28;20093;-68
2023/10/05 00:44:42;;;;;;;0.00;0.00;;;15.30;81.40;;;;;;4980882;28;20050;-68
2023/10/05 00:47:12;;;;;;;0.00;0.00;;;15.30;81.60;;;;;;4972672;28;20054;-69
2023/10/05 00:52:15;;;;;;;0.00;0.00;;;15.40;81.10;;;;;;4991821;28;20046;-69
2023/10/05 00:54:50;;;;;;;0.00;0.00;;;15.40;80.80;;;;;;4991420;28;20738;-68
2023/10/05 00:57:19;;;;;;;0.00;0.00;;;15.40;80.80;;;;;;4974732;28;20046;-69
2023/10/05 01:00:26;;;;;;;0.00;0.00;;;15.40;80.90;;;;;;4991454;28;20092;-68
2023/10/05 01:02:35;;;;;;;1.05;0.98;;;15.40;81.10;;;;;;4991971;28;20057;-68
2023/10/05 01:05:06;;;;;;;0.00;0.00;;;15.40;81.10;;;;;;4991794;28;20046;-68
2023/10/05 01:07:49;;;;;;;0.00;0.00;;;15.30;81.00;;;;;;4978235;28;20054;-68
2023/10/05 01:12:49;;;;;;;0.00;0.00;;;15.30;81.00;;;;;;4972438;28;20512;-68
2023/10/05 01:15:19;;;;;;;0.00;0.00;;;15.30;80.80;;;;;;4982515;28;20085;-68
2023/10/05 01:17:47;;;;;;;0.00;0.00;;;15.30;80.90;;;;;;4991635;28;20089;-68
2023/10/05 01:22:49;;;;;;;0.00;0.00;;;15.20;81.10;;;;;;4984043;28;20392;-68
2023/10/05 01:25:15;;;;;;;0.00;0.00;;;15.20;81.20;;;;;;4982083;28;20177;-68
2023/10/05 01:27:47;;;;;;;0.00;0.00;;;15.30;81.30;;;;;;4997781;28;20043;-68
2023/10/05 01:30:14;;;;;;;0.22;0.22;;;15.20;81.40;;;;;;4987125;28;20465;-68
2023/10/05 01:32:43;;;;;;;0.08;0.08;;;15.20;81.30;;;;;;4991646;28;20104;-68
2023/10/05 01:35:13;;;;;;;0.00;0.00;;;15.20;81.50;;;;;;4990088;28;20042;-69
2023/10/05 01:37:40;;;;;;;0.10;0.10;;;15.20;81.60;;;;;;4991587;28;20047;-68
2023/10/05 01:40:20;;;;;;;0.00;0.00;;;15.20;81.70;;;;;;4990170;28;20077;-69
2023/10/05 01:42:47;;;;;;;1.08;1.00;;;15.30;81.70;;;;;;4991082;28;20046;-68
2023/10/05 01:45:22;;;;;;;0.95;0.90;;;15.30;81.60;;;;;;4990892;28;20042;-68
2023/10/05 01:47:49;;;;;;;0.00;0.00;;;15.30;81.60;;;;;;4991446;28;20546;-68
2023/10/05 01:50:19;;;;;;;0.00;0.00;;;15.30;81.70;;;;;;4988967;28;20039;-69
2023/10/05 01:52:47;;;;;;;0.20;0.20;;;15.30;81.60;;;;;;4991073;28;20073;-68
2023/10/05 01:55:18;;;;;;;0.00;0.00;;;15.40;81.40;;;;;;4990411;28;20049;-69
2023/10/05 01:57:44;;;;;;;0.00;0.00;;;15.40;81.40;;;;;;4991072;28;20148;-68
2023/10/05 02:00:14;;;;;;;0.00;0.00;;;15.30;81.50;;;;;;4979164;28;20125;-68
2023/10/05 02:02:43;;;;;;;0.00;0.00;;;15.30;81.70;;;;;;4971932;28;20412;-68
2023/10/05 02:05:10;;;;;;;0.00;0.00;;;15.30;81.80;;;;;;4971909;28;20043;-68
2023/10/05 02:07:37;;;;;;;0.00;0.00;;;15.40;81.70;;;;;;4971290;28;20055;-69
2023/10/05 02:10:09;;;;;;;0.00;0.00;;;15.40;81.70;;;;;;4975453;28;20040;-69
2023/10/05 02:12:35;;;;;;;0.08;0.08;;;15.40;81.80;;;;;;4990857;28;20077;-69
2023/10/05 02:15:13;;;;;;;0.00;0.00;;;15.30;81.90;;;;;;4990113;28;20636;-68
2023/10/05 02:17:42;;;;;;;0.30;0.30;;;15.30;82.20;;;;;;4990604;28;20049;-68
2023/10/05 02:20:17;;;;;;;0.00;0.00;;;15.30;82.20;;;;;;4973454;28;20470;-68
2023/10/05 02:22:47;;;;;;;0.00;0.00;;;15.30;82.30;;;;;;4980674;28;20049;-69
2023/10/05 02:25:12;;;;;;;0.00;0.00;;;15.20;82.60;;;;;;4990374;28;20132;-69
2023/10/05 02:27:46;;;;;;;0.00;0.00;;;15.20;82.70;;;;;;4982910;28;20108;-68
2023/10/05 02:30:13;;;;;;;0.50;0.50;;;15.20;82.60;;;;;;4988064;28;20046;-69
2023/10/05 02:32:40;;;;;;;0.00;0.00;;;15.20;82.70;;;;;;4979168;28;20573;-68
2023/10/05 02:35:19;;;;;;;0.00;0.00;;;15.10;82.60;;;;;;4990150;28;20502;-68
2023/10/05 02:37:50;;;;;;;0.00;0.00;;;15.10;82.80;;;;;;4989957;28;20057;-69
2023/10/05 02:40:16;;;;;;;0.13;0.13;;;15.10;82.80;;;;;;4989305;28;20057;-68
2023/10/05 02:42:41;;;;;;;0.00;0.00;;;15.10;83.10;;;;;;4970854;28;20039;-69
2023/10/05 02:45:09;;;;;;;0.00;0.00;;;15.00;83.20;;;;;;4971287;28;20099;-69
2023/10/05 02:47:34;;;;;;;0.60;0.57;;;15.10;83.40;;;;;;4971214;28;20069;-69
2023/10/05 02:50:00;;;;;;;0.30;0.30;;;15.00;83.40;;;;;;4982119;28;21363;-68
2023/10/05 02:52:26;;;;;;;0.10;0.10;;;15.00;83.60;;;;;;4987844;28;20046;-68
2023/10/05 02:54:52;;;;;;;3.10;1.95;;;15.00;83.60;;;;;;4979328;28;20435;-68
2023/10/05 02:57:19;;;;;;;0.10;0.10;;;15.00;83.80;;;;;;4989290;28;20042;-68
2023/10/05 02:59:45;;;;;;;0.00;0.00;;;14.90;83.80;;;;;;4989514;28;20050;-68
2023/10/05 03:02:16;;;;;;;0.00;0.00;;;14.90;83.90;;;;;;4989035;28;20043;-68
2023/10/05 03:04:46;;;;;;;0.80;0.25;;;14.90;84.00;;;;;;4989676;28;20057;-68
2023/10/05 03:07:17;;;;;;;0.00;0.00;;;14.90;84.00;;;;;;4986144;28;20051;-68
2023/10/05 03:09:46;;;;;;;0.32;0.32;;;14.90;84.20;;;;;;4987556;28;20423;-68
2023/10/05 03:12:12;;;;;;;0.00;0.00;;;14.80;84.10;;;;;;4971094;28;20050;-68
2023/10/05 03:14:38;;;;;;;0.00;0.00;;;14.80;84.50;;;;;;4970530;28;20045;-68
2023/10/05 03:17:07;;;;;;;0.00;0.00;;;14.80;84.40;;;;;;5003281;28;20058;-68
2023/10/05 03:19:39;;;;;;;0.32;0.32;;;14.80;84.50;;;;;;4978931;28;20065;-68
2023/10/05 03:22:07;;;;;;;0.30;0.30;;;14.80;84.70;;;;;;4984501;28;20058;-68
2023/10/05 03:24:34;;;;;;;0.20;0.20;;;14.80;84.80;;;;;;4989660;28;20108;-68
2023/10/05 03:27:03;;;;;;;0.00;0.00;;;14.70;84.90;;;;;;4979434;28;20567;-68
2023/10/05 03:29:29;;;;;;;8.35;1.05;;;14.80;84.60;;;;;;4970134;28;20057;-69
2023/10/05 03:34:38;;;;;;;0.00;0.00;;;14.80;84.70;;;;;;4989442;28;20046;-69
2023/10/05 03:37:08;;;;;;;0.00;0.00;;;14.70;84.80;;;;;;4981454;28;20051;-68
2023/10/05 03:42:21;;;;;;;0.00;0.00;;;14.70;85.20;;;;;;4982575;28;20038;-68
2023/10/05 03:44:59;;;;;;;0.00;0.00;;;14.70;85.20;;;;;;4993702;28;20092;-68
2023/10/05 03:47:25;;;;;;;0.00;0.00;;;14.80;85.10;;;;;;4983653;28;20682;-68
2023/10/05 03:49:56;;;;;;;0.00;0.00;;;14.80;85.30;;;;;;4982400;28;20185;-68
2023/10/05 03:52:29;;;;;;;0.00;0.00;;;14.80;85.30;;;;;;4977205;28;20101;-68
2023/10/05 03:55:10;;;;;;;0.30;0.30;;;14.80;85.20;;;;;;4973889;28;20046;-69
2023/10/05 03:57:37;;;;;;;0.63;0.63;;;14.80;85.30;;;;;;4980417;28;20081;-68
2023/10/05 04:00:38;;;;;;;0.00;0.00;;;14.80;85.30;;;;;;4982798;28;20049;-68
2023/10/05 04:02:57;;;;;;;0.00;0.00;;;14.90;85.20;;;;;;4978446;28;20108;-68
2023/10/05 04:05:23;;;;;;;0.00;0.00;;;14.90;85.40;;;;;;4973970;28;20659;-68
2023/10/05 04:07:50;;;;;;;0.15;0.15;;;14.90;85.30;;;;;;4986568;28;20046;-68
2023/10/05 04:10:21;;;;;;;0.00;0.00;;;15.00;85.30;;;;;;4992890;28;20088;-69
2023/10/05 04:12:49;;;;;;;0.40;0.40;;;14.90;85.20;;;;;;4984787;28;20047;-68
2023/10/05 04:15:18;;;;;;;0.35;0.35;;;15.00;85.50;;;;;;4973146;28;20891;-69
2023/10/05 04:17:48;;;;;;;0.00;0.00;;;15.00;85.70;;;;;;4976025;28;20129;-68
2023/10/05 04:20:19;;;;;;;0.00;0.00;;;15.00;85.60;;;;;;4974814;28;20503;-69
2023/10/05 04:22:47;;;;;;;0.00;0.00;;;15.00;85.60;;;;;;4990519;28;20054;-68
2023/10/05 04:25:16;;;;;;;0.00;0.00;;;15.10;85.40;;;;;;4988415;28;20101;-68
2023/10/05 04:27:43;;;;;;;0.00;0.00;;;15.10;85.40;;;;;;4979503;28;20047;-68
2023/10/05 04:30:13;;;;;;;0.00;0.00;;;15.10;85.30;;;;;;4990031;28;20502;-69
2023/10/05 04:32:38;;;;;;;0.10;0.10;;;15.10;85.60;;;;;;4986129;28;20507;-68
2023/10/05 04:35:14;;;;;;;0.63;0.63;;;15.10;85.60;;;;;;4973221;28;20119;-68
2023/10/05 04:37:40;;;;;;;0.00;0.00;;;15.10;85.60;;;;;;4990074;28;20472;-68
2023/10/05 04:40:10;;;;;;;0.00;0.00;;;15.10;85.50;;;;;;4988310;28;20069;-69
2023/10/05 04:42:36;;;;;;;0.00;0.00;;;15.10;85.40;;;;;;4986804;28;20050;-69
2023/10/05 04:45:07;;;;;;;1.27;0.47;;;15.10;85.50;;;;;;4972976;28;20046;-69
2023/10/05 04:47:33;;;;;;;0.47;0.47;;;15.10;85.60;;;;;;4976820;28;20047;-69
2023/10/05 04:49:58;;;;;;;0.00;0.00;;;15.10;85.60;;;;;;4972379;28;20051;-69
2023/10/05 04:52:24;;;;;;;2.53;1.33;;;15.10;85.80;;;;;;4982285;28;20462;-68
2023/10/05 04:54:57;;;;;;;0.00;0.00;;;15.10;85.80;;;;;;4973839;28;20043;-68
2023/10/05 04:57:35;;;;;;;0.00;0.00;;;15.20;85.90;;;;;;4982522;28;20042;-68
2023/10/05 05:00:48;;;;;;;0.00;0.00;;;15.10;86.10;;;;;;4991686;28;20137;-68
2023/10/05 05:03:16;;;;;;;0.30;0.30;;;15.10;86.10;;;;;;4990467;28;20125;-68
2023/10/05 05:08:46;;;;;;;0.00;0.00;;;15.10;86.70;;;;;;4948684;29;20063;-69
2023/10/05 05:11:18;;;;;;;0.00;0.00;;;15.10;86.80;;;;;;4983216;28;20101;-68
2023/10/05 05:13:48;;;;;;;0.00;0.00;;;15.00;86.90;;;;;;4980176;28;20505;-68
2023/10/05 05:16:17;;;;;;;0.00;0.00;;;15.00;87.30;;;;;;4988513;28;20045;-68
2023/10/05 05:18:43;;;;;;;0.15;0.15;;;15.00;87.10;;;;;;4972329;28;20055;-69
2023/10/05 05:21:12;;;;;;;0.88;0.88;;;15.00;87.50;;;;;;4981270;28;20776;-68
2023/10/05 05:23:39;;;;;;;0.22;0.22;;;15.10;87.80;;;;;;4991111;28;20096;-69
2023/10/05 05:26:09;;;;;;;0.00;0.00;;;15.10;87.90;;;;;;4986633;28;20045;-68
2023/10/05 05:28:37;;;;;;;0.00;0.00;;;15.00;88.00;;;;;;4983506;28;20462;-69
2023/10/05 05:31:16;;;;;;;0.32;0.32;;;15.00;88.00;;;;;;4989104;28;20137;-69
2023/10/05 05:33:44;;;;;;;0.00;0.00;;;15.00;88.30;;;;;;4990190;28;20061;-70
2023/10/05 05:36:11;;;;;;;0.00;0.00;;;15.00;88.20;;;;;;4989386;28;20094;-68
2023/10/05 05:38:39;;;;;;;0.00;0.00;;;15.00;88.30;;;;;;4985873;28;20084;-70
2023/10/05 05:41:12;;;;;;;0.00;0.00;;;14.90;88.40;;;;;;4988875;28;20054;-70
2023/10/05 05:43:41;;;;;;;0.00;0.00;;;14.90;88.40;;;;;;4989109;28;20526;-70
2023/10/05 05:46:13;;;;;;;0.00;0.00;;;14.90;88.50;;;;;;4989477;28;20136;-69
2023/10/05 05:48:43;;;;;;;0.00;0.00;;;15.00;88.60;;;;;;4976974;28;20419;-70
2023/10/05 05:51:14;;;;;;;0.00;0.00;;;14.90;88.60;;;;;;4989755;28;20093;-69
2023/10/05 05:53:46;;;;;;;0.05;0.05;;;14.90;88.70;;;;;;4983574;28;20054;-69
2023/10/05 05:56:16;;;;;;;0.00;0.00;;;14.90;88.50;;;;;;4990044;28;20061;-70
2023/10/05 05:58:44;;;;;;;0.00;0.00;;;15.00;88.50;;;;;;4988009;28;20081;-69
2023/10/05 06:01:14;;;;;;;0.00;0.00;;;15.00;88.50;;;;;;4988625;28;20420;-70
2023/10/05 06:03:53;;;;;;;0.00;0.00;;;15.00;88.30;;;;;;4987850;28;20415;-69
2023/10/05 06:06:21;;;;;;;0.00;0.00;;;15.00;88.40;;;;;;4989400;28;20055;-69
2023/10/05 06:08:47;;;;;;;0.25;0.25;;;15.10;88.20;;;;;;4977793;28;20035;-70
2023/10/05 06:11:14;;;;;;;0.13;0.13;;;15.10;88.40;;;;;;4986418;28;20563;-68
2023/10/05 06:13:41;;;;;;;0.00;0.00;;;15.00;88.50;;;;;;4982874;28;20101;-69
2023/10/05 06:16:10;;;;;;;2.40;0.98;;;15.10;88.60;;;;;;4983422;28;20392;-68
2023/10/05 06:18:38;;;;;;;0.00;0.00;;;15.10;88.60;;;;;;4986904;28;20058;-70
2023/10/05 06:21:05;;;;;;;0.10;0.10;;;15.10;88.60;;;;;;4988951;28;20046;-70
2023/10/05 06:23:33;;;;;;;0.10;0.10;;;15.10;88.60;;;;;;4988808;28;20066;-70
2023/10/05 06:25:59;;;;;;;0.00;0.00;;;15.10;88.70;;;;;;4989353;28;20082;-68
2023/10/05 06:28:26;;;;;;;0.00;0.00;;;15.10;88.70;;;;;;4987729;28;20048;-67
2023/10/05 06:30:52;;;;;;;0.00;0.00;;;15.10;88.70;;;;;;4989896;28;20054;-66
2023/10/05 06:33:22;;;;;;;0.00;0.00;;;15.10;88.60;;;;;;4988498;28;20081;-67
2023/10/05 06:35:48;;;;;;;0.00;0.00;;;15.10;88.50;;;;;;4980735;28;20136;-66
2023/10/05 06:38:16;;;;;;;0.00;0.00;;;15.20;88.10;;;;;;4985791;28;20074;-67
2023/10/05 06:40:41;;;;;;;0.70;0.70;;;15.30;88.10;;;;;;4988321;28;20045;-66
2023/10/05 06:43:07;;;;;;;0.00;0.00;;;15.30;88.00;;;;;;4990170;28;20042;-67
2023/10/05 06:45:36;;;;;;;0.00;0.00;;;15.30;87.80;;;;;;4990568;28;20057;-68
2023/10/05 06:48:04;;;;;;;0.00;0.00;;;15.30;87.70;;;;;;4980543;28;20038;-67
2023/10/05 06:50:30;;;;;;;0.10;0.10;;;15.40;87.50;;;;;;4984433;28;20381;-67
2023/10/05 06:52:56;;;;;;;0.00;0.00;;;15.30;87.40;;;;;;4983573;28;20034;-67
2023/10/05 06:55:21;;;;;;;0.00;0.00;;;15.30;87.40;;;;;;4985175;28;20407;-68
2023/10/05 06:57:50;;;;;;;0.43;0.43;;;15.30;87.40;;;;;;4982481;28;20078;-67
2023/10/05 07:00:22;;;;;;;0.68;0.63;;;15.40;87.40;;;;;;4983393;28;20438;-67
2023/10/05 07:02:49;;;;;;;0.35;0.35;;;15.40;87.40;;;;;;4986650;28;20395;-67
2023/10/05 07:05:16;;;;;;;0.00;0.00;;;15.40;87.40;;;;;;4985605;28;20069;-67
2023/10/05 07:07:42;;;;;;;0.00;0.00;;;15.40;87.30;;;;;;4985644;28;20054;-68
2023/10/05 07:10:09;;;;;;;0.95;0.60;;;15.40;87.00;;;;;;4986574;28;20042;-67
2023/10/05 07:12:38;;;;;;;0.32;0.32;;;15.50;86.90;;;;;;4985475;28;20052;-68
2023/10/05 07:15:05;;;;;;;0.43;0.43;;;15.50;87.00;;;;;;4984471;28;21728;-67
2023/10/05 07:17:31;;;;;;;1.70;1.20;;;15.40;87.00;;;;;;4985581;28;20046;-67
2023/10/05 07:19:58;;;;;;;0.00;0.00;;;15.40;87.10;;;;;;4981542;28;20519;-66
2023/10/05 07:22:24;;;;;;;0.00;0.00;;;15.40;87.00;;;;;;4986113;28;20042;-67
2023/10/05 07:24:50;;;;;;;0.25;0.25;;;15.50;87.10;;;;;;4985409;28;20046;-67
2023/10/05 07:27:16;;;;;;;0.00;0.00;;;15.50;87.10;;;;;;4985262;28;20096;-67
2023/10/05 07:29:45;;;;;;;0.00;0.00;;;15.40;87.20;;;;;;4986015;28;20038;-66
2023/10/05 07:32:14;;;;;;;0.03;0.03;;;15.50;87.30;;;;;;4984897;28;20055;-67
2023/10/05 07:34:43;;;;;;;0.00;0.00;;;15.50;87.30;;;;;;4985932;28;20050;-66
2023/10/05 07:37:12;;;;;;;0.00;0.00;;;15.50;87.30;;;;;;4986226;28;20054;-67
2023/10/05 07:39:40;;;;;;;0.20;0.20;;;15.60;87.30;;;;;;4987109;28;20126;-66
2023/10/05 07:42:08;;;;;;;0.00;0.00;;;15.60;87.50;;;;;;4985811;28;20218;-67
2023/10/05 07:44:36;;;;;;;1.95;1.08;;;15.60;87.40;;;;;;4985035;28;20104;-66
2023/10/05 07:47:02;;;;;;;0.00;0.00;;;15.60;87.80;;;;;;4984881;28;20546;-67
2023/10/05 07:49:27;;;;;;;0.00;0.00;;;15.50;88.10;;;;;;5000142;28;20059;-66
2023/10/05 07:51:53;;;;;;;1.08;0.98;;;15.50;88.50;;;;;;4986812;28;20035;-67
2023/10/05 07:54:20;;;;;;;0.00;0.00;;;15.50;88.70;;;;;;4986267;28;20082;-66
2023/10/05 07:56:45;;;;;;;0.00;0.00;;;15.50;89.00;;;;;;4986173;28;20430;-66
2023/10/05 07:59:13;;;;;;;0.00;0.00;;;15.40;89.10;;;;;;4987151;28;20038;-66
2023/10/05 08:01:40;;;;;;;0.00;0.00;;;15.40;89.20;;;;;;4985864;28;20043;-66
2023/10/05 08:04:05;;;;;;;0.05;0.05;;;15.50;89.10;;;;;;4985143;28;20046;-66
2023/10/05 08:06:31;;;;;;;4.70;0.38;;;15.50;88.90;;;;;;4987163;28;20045;-66
2023/10/05 08:08:57;;;;;;;0.10;0.10;;;15.60;88.90;;;;;;4987262;28;20550;-66
2023/10/05 08:11:23;;;;;;;0.00;0.00;;;15.60;88.80;;;;;;4986981;28;20053;-66
2023/10/05 08:13:48;;;;;;;0.10;0.10;;;15.60;88.60;;;;;;4985263;28;20038;-67
2023/10/05 08:16:14;;;;;;;1.02;0.65;;;15.60;88.80;;;;;;4986698;28;20545;-68
2023/10/05 08:18:41;;;;;;;0.10;0.10;;;15.60;89.30;;;;;;4984131;28;20054;-68
2023/10/05 08:21:07;;;;;;;0.00;0.00;;;15.60;89.40;;;;;;4988954;28;20042;-68
2023/10/05 08:23:33;;;;;;;0.00;0.00;;;15.60;89.40;;;;;;4988743;28;20410;-68
2023/10/05 08:25:59;;;;;;;0.00;0.00;;;15.60;89.50;;;;;;4991062;28;20784;-67
2023/10/05 08:28:25;;;;;;;1.13;0.82;;;15.60;89.70;;;;;;4992047;28;20046;-68
2023/10/05 08:31:07;;;;;;;0.10;0.10;;;15.50;89.90;;;;;;4992002;28;20050;-67
2023/10/05 08:33:35;;;;;;;;;;;15.40;89.90;;;;;;4992358;28;20054;-68
2023/10/05 08:36:11;;;;;;;0.30;0.30;;;15.40;90.20;;;;;;4982154;28;19977;-67
2023/10/05 08:38:38;;;;;;;0.00;0.00;;;15.40;90.40;;;;;;4982299;28;20064;-68
2023/10/05 08:41:07;;;;;;;0.00;0.00;;;15.30;90.50;;;;;;4991681;28;20118;-67
2023/10/05 08:43:40;;;;;;;0.00;0.00;;;15.40;90.70;;;;;;4990806;28;20061;-67
2023/10/05 08:46:14;;;;;;;0.00;0.00;;;15.40;90.80;;;;;;4991895;28;20057;-67
2023/10/05 08:48:41;;;;;;;0.65;0.47;;;15.50;90.80;;;;;;5006801;28;20046;-68
2023/10/05 08:51:12;;;;;;;0.43;0.38;;;15.50;90.80;;;;;;4990312;28;20046;-67
2023/10/05 08:53:43;;;;;;;0.38;0.38;;;15.50;90.90;;;;;;5002976;28;20093;-67
2023/10/05 08:56:15;;;;;;;0.55;0.55;;;15.50;90.90;;;;;;4962330;28;20046;-67
2023/10/05 08:58:48;;;;;;;0.20;0.20;;;15.50;90.60;;;;;;4980335;28;20038;-67
2023/10/05 09:01:25;;;;;;;0.00;0.00;;;15.50;90.70;;;;;;4991880;28;20052;-67
2023/10/05 09:03:54;;;;;;;0.13;0.13;;;15.50;91.00;;;;;;4982539;28;20047;-68
2023/10/05 09:06:26;;;;;;;0.47;0.47;;;15.50;91.10;;;;;;4973504;28;20071;-67
2023/10/05 09:08:54;;;;;;;0.00;0.00;;;15.50;91.30;;;;;;4974827;28;20073;-67
2023/10/05 09:11:26;;;;;;;1.60;0.43;;;15.60;91.40;;;;;;4985283;28;20042;-67
2023/10/05 09:13:52;;;;;;;0.00;0.00;;;15.60;91.40;;;;;;4975360;28;20062;-67
2023/10/05 09:16:30;;;;;;;0.00;0.00;;;15.60;91.30;;;;;;4990655;28;20666;-68
2023/10/05 09:18:57;;;;;;;0.20;0.20;;;15.60;91.30;;;;;;4982959;28;20471;-68
2023/10/05 09:21:44;;;;;;;0.10;0.10;;;15.70;91.30;;;;;;4971406;28;20062;-69
2023/10/05 09:24:21;;;;;;;9.07;2.72;;;15.80;91.30;;;;;;4971680;28;20415;-67
2023/10/05 09:27:09;;;;;;;2.10;1.45;;;15.90;90.60;;;;;;4971702;28;20077;-69
2023/10/05 09:29:36;;;;;;;0.00;0.00;;;15.90;90.10;;;;;;4971664;28;20525;-68
2023/10/05 09:32:08;;;;;;;0.30;0.30;;;16.00;90.20;;;;;;4985949;28;20380;-68
2023/10/05 09:34:34;;;;;;;0.00;0.00;;;16.00;89.70;;;;;;4990373;28;20050;-68
2023/10/05 09:37:05;;;;;;;0.10;0.10;;;16.00;89.60;;;;;;4988538;28;20061;-68
2023/10/05 09:39:44;;;;;;;;;;;16.00;89.40;;;;;;4991401;28;20034;-68
2023/10/05 09:42:22;;;;;;;0.00;0.00;;;16.00;89.30;;;;;;4990506;28;20034;-68
2023/10/05 09:44:51;;;;;;;0.00;0.00;;;15.90;89.30;;;;;;4989444;28;20499;-68
2023/10/05 09:47:32;;;;;;;0.00;0.00;;;16.00;89.40;;;;;;4990346;28;20051;-67
2023/10/05 09:50:09;;;;;;;0.00;0.00;;;16.00;89.30;;;;;;4984673;28;20389;-68
2023/10/05 09:52:43;;;;;;;0.30;0.10;;;15.90;88.90;;;;;;4976576;28;20050;-68
2023/10/05 09:55:12;;;;;;;0.00;0.00;;;16.00;88.50;;;;;;4956443;28;20050;-67
2023/10/05 09:57:41;;;;;;;0.38;0.38;;;16.00;88.40;;;;;;4988137;28;20076;-67
2023/10/05 10:02:59;;;;;;;0.20;0.20;;;16.00;87.90;;;;;;4982143;28;20054;-69
2023/10/05 10:05:42;;;;;;;0.00;0.00;;;16.10;87.30;;;;;;4983126;28;20077;-69
2023/10/05 10:08:14;;;;;;;0.00;0.00;;;16.10;87.50;;;;;;4988270;28;20552;-68
2023/10/05 10:10:51;;;;;;;0.08;0.08;;;16.20;87.70;;;;;;4994174;28;20054;-68
2023/10/05 10:13:21;;;;;;;0.00;0.00;;;16.30;87.20;;;;;;4983882;28;20054;-68
2023/10/05 10:15:49;;;;;;;0.68;0.68;;;16.40;87.40;;;;;;4986729;28;20054;-69
2023/10/05 10:18:15;;;;;;;0.95;0.57;;;16.60;87.20;;;;;;4988437;28;20523;-70
2023/10/05 10:20:49;;;;;;;0.00;0.00;;;16.60;86.60;;;;;;4976452;28;20043;-69
2023/10/05 10:23:29;;;;;;;0.00;0.00;;;16.70;86.20;;;;;;4970507;28;20126;-70
2023/10/05 10:26:18;;;;;;;0.00;0.00;;;16.80;85.40;;;;;;4989874;28;20047;-69
2023/10/05 10:31:19;;;;;;;0.15;0.15;;;17.10;85.20;;;;;;4986002;28;20121;-67
2023/10/05 10:33:51;;;;;;;0.30;0.30;;;17.20;83.90;;;;;;4989086;28;20101;-68
2023/10/05 10:36:47;;;;;;;0.00;0.00;;;17.30;84.30;;;;;;4982705;28;20510;-69
2023/10/05 10:39:27;;;;;;;0.52;0.52;;;17.30;83.20;;;;;;4965507;28;20581;-69
2023/10/05 10:42:18;;;;;;;0.00;0.00;;;17.20;82.90;;;;;;4984285;28;20045;-69
2023/10/05 10:47:17;;;;;;;0.00;0.00;;;17.30;83.40;;;;;;4981479;28;20046;-68
2023/10/05 10:50:11;;;;;;;0.00;0.00;;;17.30;82.80;;;;;;4981318;28;20050;-67
2023/10/05 10:52:37;;;;;;;0.00;0.00;;;17.50;83.80;;;;;;4982810;28;20038;-68
2023/10/05 10:55:04;;;;;;;0.10;0.10;;;17.50;83.60;;;;;;4987769;28;20058;-68
2023/10/05 10:57:30;;;;;;;0.00;0.00;;;17.40;82.90;;;;;;4986782;28;20499;-67
2023/10/05 11:00:38;;;;;;;0.00;0.00;;;17.30;82.80;;;;;;4977276;28;20065;-66
2023/10/05 11:02:42;;;;;;;0.00;0.00;;;17.20;82.90;;;;;;4987177;28;20051;-68
2023/10/05 11:05:15;;;;;;;1.90;0.57;;;17.20;83.00;;;;;;4988469;28;20058;-68
2023/10/05 11:07:44;;;;;;;0.20;0.20;;;17.30;83.40;;;;;;4988918;28;20057;-68
2023/10/05 11:10:20;;;;;;;0.20;0.20;;;17.20;83.80;;;;;;4980694;28;20463;-68
2023/10/05 11:12:54;;;;;;;0.00;0.00;;;17.20;84.20;;;;;;4981743;28;20400;-68
2023/10/05 11:15:28;;;;;;;2.13;1.33;;;17.10;85.40;;;;;;5003226;28;20066;-68
2023/10/05 11:17:58;;;;;;;0.00;0.00;;;17.20;85.20;;;;;;4979769;28;20475;-68
2023/10/05 11:20:33;;;;;;;0.00;0.00;;;17.30;85.40;;;;;;4972961;28;20065;-68
2023/10/05 11:23:03;;;;;;;0.00;0.00;;;17.30;84.50;;;;;;4973667;28;20482;-68
2023/10/05 11:25:35;;;;;;;0.20;0.20;;;17.30;83.50;;;;;;4987537;28;20169;-68
2023/10/05 11:28:01;;;;;;;0.00;0.00;;;17.30;83.10;;;;;;4983133;28;20047;-68
2023/10/05 11:30:45;;;;;;;0.00;0.00;;;17.30;83.40;;;;;;4970614;28;20047;-68
2023/10/05 11:33:17;;;;;;;0.20;0.20;;;17.30;82.80;;;;;;4979764;28;20046;-68
2023/10/05 11:35:52;;;;;;;0.00;0.00;;;17.30;83.40;;;;;;4989060;28;20065;-68
2023/10/05 11:38:26;;;;;;;0.28;0.28;;;17.50;82.40;;;;;;4969737;28;20043;-68
2023/10/05 11:40:56;;;;;;;0.10;0.10;;;17.30;82.00;;;;;;4969378;28;20455;-68
2023/10/05 11:43:22;;;;;;;0.00;0.00;;;17.30;81.30;;;;;;4969298;28;20158;-68
2023/10/05 11:48:55;;;;;;;0.20;0.20;;;17.40;81.50;;;;;;4975017;28;20085;-68
2023/10/05 11:51:27;;;;;;;0.00;0.00;;;17.50;81.80;;;;;;4988770;28;20063;-68
2023/10/05 11:53:55;;;;;;;0.00;0.00;;;17.50;81.80;;;;;;4988581;28;20097;-68
2023/10/05 11:56:21;;;;;;;0.00;0.00;;;17.50;81.10;;;;;;4987509;28;20081;-67
2023/10/05 11:58:48;;;;;;;0.00;0.00;;;17.50;80.90;;;;;;4978056;28;20050;-68
2023/10/05 12:01:20;;;;;;;0.00;0.00;;;17.50;81.50;;;;;;4972179;28;20130;-68
2023/10/05 12:03:47;;;;;;;0.30;0.30;;;17.60;81.70;;;;;;4972795;28;20046;-69
2023/10/05 12:06:15;;;;;;;0.00;0.00;;;17.60;81.60;;;;;;4972772;28;20047;-68
2023/10/05 12:08:42;;;;;;;0.00;0.00;;;17.60;81.30;;;;;;4973287;28;20039;-68
2023/10/05 12:11:10;;;;;;;0.00;0.00;;;17.60;81.20;;;;;;4973302;28;20050;-68
2023/10/05 12:13:35;;;;;;;0.00;0.00;;;17.60;81.50;;;;;;4974139;28;20126;-66
2023/10/05 12:16:11;;;;;;;0.05;0.05;;;17.60;81.00;;;;;;4981546;28;20129;-68
2023/10/05 12:18:37;;;;;;;0.60;0.60;;;17.60;81.20;;;;;;4995887;28;20146;-67
2023/10/05 12:21:03;;;;;;;0.00;0.00;;;17.50;81.40;;;;;;4984971;28;20466;-68
2023/10/05 12:23:28;;;;;;;0.65;0.65;;;17.70;81.60;;;;;;4982018;28;20423;-68
2023/10/05 12:25:54;;;;;;;2.72;0.90;;;17.60;81.20;;;;;;4990565;28;20499;-66
2023/10/05 12:28:23;;;;;;;0.00;0.00;;;17.70;81.70;;;;;;4972437;28;20109;-67
2023/10/05 12:30:49;;;;;;;0.00;0.00;;;17.80;81.30;;;;;;4987968;28;20045;-67
2023/10/05 12:33:15;;;;;;;0.00;0.00;;;17.80;81.00;;;;;;4974653;28;20046;-67
2023/10/05 12:35:43;;;;;;;0.00;0.00;;;17.80;81.10;;;;;;4992211;28;20043;-67
2023/10/05 12:38:10;;;;;;;0.40;0.40;;;17.80;81.10;;;;;;4974870;28;20558;-68
2023/10/05 12:40:41;;;;;;;0.00;0.00;;;17.80;80.60;;;;;;4972555;28;20043;-68
2023/10/05 12:43:15;;;;;;;0.00;0.00;;;17.70;80.00;;;;;;4985596;28;20053;-68
2023/10/05 12:45:43;;;;;;;0.00;0.00;;;17.80;80.50;;;;;;4972332;28;20660;-67
2023/10/05 12:48:08;;;;;;;0.00;0.00;;;17.80;80.60;;;;;;4987603;28;20088;-68
2023/10/05 12:50:34;;;;;;;0.20;0.20;;;18.00;80.70;;;;;;4992011;28;20078;-67
2023/10/05 12:53:00;;;;;;;0.00;0.00;;;18.10;79.80;;;;;;4988378;28;20365;-67
2023/10/05 12:55:26;;;;;;;0.00;0.00;;;18.10;78.10;;;;;;4991896;28;20069;-67
2023/10/05 12:57:53;;;;;;;0.00;0.00;;;18.10;79.30;;;;;;4978737;28;20038;-67
2023/10/05 13:00:31;;;;;;;0.00;0.00;;;18.10;78.30;;;;;;4977274;28;20050;-67
2023/10/05 13:03:00;;;;;;;0.00;0.00;;;18.30;77.70;;;;;;4977624;28;20126;-69
2023/10/05 13:05:31;;;;;;;2.17;1.98;;;18.30;77.70;;;;;;4971005;28;20051;-69
2023/10/05 13:08:01;;;;;;;0.00;0.00;;;18.20;78.00;;;;;;4971848;28;20050;-67
2023/10/05 13:10:32;;;;;;;0.00;0.00;;;18.10;78.40;;;;;;4971783;28;20439;-67
2023/10/05 13:13:09;;;;;;;0.00;0.00;;;18.10;78.80;;;;;;4978577;28;20725;-67
2023/10/05 13:15:35;;;;;;;0.00;0.00;;;18.10;78.40;;;;;;4991464;28;20050;-67
2023/10/05 13:20:59;;;;;;;0.00;0.00;;;18.30;77.60;;;;;;4970163;28;20169;-68
2023/10/05 13:23:26;;;;;;;0.00;0.00;;;18.40;78.10;;;;;;4978132;28;20129;-68
2023/10/05 13:25:52;;;;;;;0.05;0.05;;;18.50;77.90;;;;;;4986173;28;20055;-68
2023/10/05 13:28:24;;;;;;;0.00;0.00;;;18.50;77.40;;;;;;4989866;28;20058;-67
2023/10/05 13:30:54;;;;;;;0.00;0.00;;;18.30;76.30;;;;;;4982084;28;20050;-68
2023/10/05 13:33:29;;;;;;;0.00;0.00;;;18.30;76.80;;;;;;4988603;28;20082;-67